Time;durP1;ratioP1;P1;durP2;ratioP2;P2;SDS_P1;SDS_P2;PMS_P1;PMS_P2;Temp;Humidity;BMP_temperature;BMP_pressure;BME280_temperature;BME280_humidity;BME280_pressure;Samples;Min_cycle;Max_cycle;Signal;HPM_P1;HPM_P2
2021/04/19 00:01:44;;;;;;;27.80;19.05;;;;;;;;;;5155797;27;20038;-61
2021/04/19 00:04:10;;;;;;;27.35;18.42;;;;;;;;;;5156227;27;20087;-61
2021/04/19 00:06:35;;;;;;;26.42;18.55;;;;;;;;;;5156323;27;20480;-61
2021/04/19 00:09:01;;;;;;;25.55;17.52;;;;;;;;;;5156624;27;20027;-61
2021/04/19 00:11:28;;;;;;;25.90;17.17;;;;;;;;;;5156329;27;20450;-61
2021/04/19 00:13:53;;;;;;;23.77;17.10;;;;;;;;;;5156117;27;20114;-61
2021/04/19 00:16:19;;;;;;;29.90;18.73;;;;;;;;;;5137807;27;20102;-61
2021/04/19 00:18:44;;;;;;;25.23;17.33;;;;;;;;;;5156009;27;20049;-61
2021/04/19 00:21:10;;;;;;;26.52;18.17;;;;;;;;;;5155841;27;20010;-61
2021/04/19 00:23:35;;;;;;;33.17;20.35;;;;;;;;;;5156051;27;20026;-61
2021/04/19 00:26:01;;;;;;;30.48;20.05;;;;;;;;;;5155924;27;20807;-61
2021/04/19 00:28:26;;;;;;;37.58;24.15;;;;;;;;;;5156098;27;20033;-61
2021/04/19 00:30:52;;;;;;;34.53;22.20;;;;;;;;;;5136844;27;20518;-61
2021/04/19 00:33:17;;;;;;;34.17;22.75;;;;;;;;;;5136685;27;20034;-61
2021/04/19 00:35:42;;;;;;;34.42;21.08;;;;;;;;;;5155974;27;20134;-61
2021/04/19 00:38:08;;;;;;;29.88;20.27;;;;;;;;;;5155948;27;20022;-61
2021/04/19 00:40:34;;;;;;;32.03;21.02;;;;;;;;;;5155900;27;20034;-61
2021/04/19 00:43:00;;;;;;;29.63;18.98;;;;;;;;;;5137311;27;20031;-61
2021/04/19 00:45:25;;;;;;;24.65;16.45;;;;;;;;;;5137235;27;20488;-61
2021/04/19 00:47:51;;;;;;;26.00;16.17;;;;;;;;;;5155631;27;20381;-61
2021/04/19 00:50:18;;;;;;;29.08;17.35;;;;;;;;;;5155499;27;20526;-61
2021/04/19 00:52:44;;;;;;;29.67;17.60;;;;;;;;;;5155591;27;20022;-61
2021/04/19 00:55:14;;;;;;;34.50;20.63;;;;;;;;;;5155559;27;20121;-61
2021/04/19 00:57:40;;;;;;;32.92;21.20;;;;;;;;;;5155679;27;20030;-61
2021/04/19 01:00:10;;;;;;;36.92;23.05;;;;;;;;;;5136976;27;20021;-61
2021/04/19 01:02:35;;;;;;;37.58;23.67;;;;;;;;;;5133046;27;20130;-61
2021/04/19 01:05:04;;;;;;;35.83;22.85;;;;;;;;;;5133608;27;20114;-61
2021/04/19 01:07:29;;;;;;;36.22;23.25;;;;;;;;;;5133220;27;20034;-61
2021/04/19 01:09:54;;;;;;;41.50;24.63;;;;;;;;;;5134476;27;20464;-61
2021/04/19 01:12:21;;;;;;;59.38;30.30;;;;;;;;;;5134548;27;20023;-61
2021/04/19 01:14:47;;;;;;;44.00;24.42;;;;;;;;;;5134608;27;20011;-60
2021/04/19 01:17:13;;;;;;;41.55;24.25;;;;;;;;;;5133193;27;20117;-61
2021/04/19 01:19:38;;;;;;;29.95;20.23;;;;;;;;;;5134474;27;20019;-61
2021/04/19 01:22:07;;;;;;;33.33;20.45;;;;;;;;;;5134396;27;20071;-61
2021/04/19 01:24:32;;;;;;;27.30;18.20;;;;;;;;;;5133076;27;20363;-61
2021/04/19 01:26:59;;;;;;;27.92;17.45;;;;;;;;;;5132500;27;20167;-62
2021/04/19 01:29:25;;;;;;;27.77;18.00;;;;;;;;;;5134809;27;20055;-61
2021/04/19 01:31:52;;;;;;;29.02;19.85;;;;;;;;;;5132893;27;20046;-61
2021/04/19 01:34:17;;;;;;;30.20;19.60;;;;;;;;;;5134477;27;20015;-61
2021/04/19 01:36:45;;;;;;;30.33;20.38;;;;;;;;;;5133253;28;20026;-61
2021/04/19 01:39:16;;;;;;;31.40;21.58;;;;;;;;;;5132990;28;20486;-61
2021/04/19 01:41:46;;;;;;;33.00;21.27;;;;;;;;;;5133884;27;20547;-61
2021/04/19 01:44:14;;;;;;;33.78;20.92;;;;;;;;;;5137178;27;20034;-61
2021/04/19 01:46:40;;;;;;;32.05;21.45;;;;;;;;;;5138618;27;20027;-61
2021/04/19 01:49:18;;;;;;;34.88;21.38;;;;;;;;;;5138516;27;20044;-61
2021/04/19 01:51:46;;;;;;;;;;;;;;;;;;5138888;27;20442;-61
2021/04/19 01:54:11;;;;;;;43.40;27.30;;;;;;;;;;5138498;27;19939;-61
2021/04/19 01:56:37;;;;;;;44.10;27.83;;;;;;;;;;5120091;27;20057;-61
2021/04/19 01:59:04;;;;;;;42.80;25.08;;;;;;;;;;5136877;27;20012;-61
2021/04/19 02:01:31;;;;;;;45.58;26.40;;;;;;;;;;5143683;27;20095;-61
2021/04/19 02:04:16;;;;;;;41.28;24.05;;;;;;;;;;5123341;27;20030;-61
2021/04/19 02:07:04;;;;;;;35.97;22.70;;;;;;;;;;5140606;27;20027;-61
2021/04/19 02:09:54;;;;;;;37.35;23.10;;;;;;;;;;5140228;27;20034;-61
2021/04/19 02:12:39;;;;;;;36.85;23.90;;;;;;;;;;5110893;27;20070;-60
2021/04/19 02:15:10;;;;;;;32.25;22.27;;;;;;;;;;5140120;27;20037;-61
2021/04/19 02:17:51;;;;;;;31.90;21.00;;;;;;;;;;5139661;27;20037;-61
2021/04/19 02:20:25;;;;;;;33.05;21.58;;;;;;;;;;5140025;27;20030;-61
2021/04/19 02:22:58;;;;;;;29.85;20.92;;;;;;;;;;5158647;27;20110;-61
2021/04/19 02:25:34;;;;;;;31.60;20.30;;;;;;;;;;5139895;27;20426;-61
2021/04/19 02:28:12;;;;;;;35.55;21.55;;;;;;;;;;5158171;27;20030;-60
2021/04/19 02:30:40;;;;;;;30.70;20.00;;;;;;;;;;5139186;27;20121;-61
2021/04/19 02:33:14;;;;;;;33.47;21.95;;;;;;;;;;5138811;27;20095;-61
2021/04/19 02:35:41;;;;;;;33.25;22.10;;;;;;;;;;5137784;27;20067;-61
2021/04/19 02:38:10;;;;;;;35.22;22.58;;;;;;;;;;5138428;27;20501;-61
2021/04/19 02:40:36;;;;;;;31.42;21.77;;;;;;;;;;5138565;27;20033;-61
2021/04/19 02:43:03;;;;;;;33.47;21.95;;;;;;;;;;5138627;27;20474;-61
2021/04/19 02:45:30;;;;;;;32.97;21.50;;;;;;;;;;5156919;27;20034;-61
2021/04/19 02:48:07;;;;;;;35.20;21.42;;;;;;;;;;5122904;27;20023;-61
2021/04/19 02:50:41;;;;;;;34.50;20.70;;;;;;;;;;5138555;27;20023;-61
2021/04/19 02:53:07;;;;;;;37.55;20.70;;;;;;;;;;5156912;27;20075;-61
2021/04/19 02:55:33;;;;;;;34.47;20.65;;;;;;;;;;5138916;27;20014;-61
2021/04/19 02:58:03;;;;;;;34.58;20.77;;;;;;;;;;5138832;27;20407;-61
2021/04/19 03:00:33;;;;;;;38.00;20.52;;;;;;;;;;5138912;27;20041;-61
2021/04/19 03:03:00;;;;;;;32.60;21.05;;;;;;;;;;5157137;27;20039;-61
2021/04/19 03:05:27;;;;;;;33.58;21.02;;;;;;;;;;5138735;27;20125;-61
2021/04/19 03:07:57;;;;;;;40.20;21.33;;;;;;;;;;5121687;27;20374;-61
2021/04/19 03:10:24;;;;;;;35.38;21.48;;;;;;;;;;5138577;27;20027;-61
2021/04/19 03:12:52;;;;;;;33.15;20.73;;;;;;;;;;5121492;27;20435;-61
2021/04/19 03:15:21;;;;;;;35.45;20.70;;;;;;;;;;5138475;27;20019;-61
2021/04/19 03:18:02;;;;;;;36.38;22.67;;;;;;;;;;5138077;27;20121;-61
2021/04/19 03:20:51;;;;;;;31.55;19.95;;;;;;;;;;5157010;27;20037;-61
2021/04/19 03:23:23;;;;;;;34.17;20.27;;;;;;;;;;5138459;27;20481;-61
2021/04/19 03:25:54;;;;;;;34.60;21.00;;;;;;;;;;5138370;27;20031;-61
2021/04/19 03:28:23;;;;;;;31.95;20.98;;;;;;;;;;5138247;27;20393;-61
2021/04/19 03:30:52;;;;;;;31.73;20.30;;;;;;;;;;5138080;27;20035;-60
2021/04/19 03:33:21;;;;;;;34.13;20.17;;;;;;;;;;5138000;27;20150;-61
2021/04/19 03:35:50;;;;;;;31.65;19.75;;;;;;;;;;5156762;27;20389;-61
2021/04/19 03:38:19;;;;;;;34.30;21.65;;;;;;;;;;5138188;27;20037;-61
2021/04/19 03:40:47;;;;;;;35.55;20.50;;;;;;;;;;5138121;27;20030;-61
2021/04/19 03:43:16;;;;;;;;;;;;;;;;;;5157094;27;20018;-61
2021/04/19 03:45:52;;;;;;;30.20;19.10;;;;;;;;;;5138000;27;19907;-61
2021/04/19 03:48:25;;;;;;;30.52;18.98;;;;;;;;;;5156422;27;20049;-61
2021/04/19 03:51:02;;;;;;;29.45;18.13;;;;;;;;;;5137770;27;20114;-61
2021/04/19 03:53:29;;;;;;;28.85;18.48;;;;;;;;;;5137802;27;20019;-61
2021/04/19 03:55:57;;;;;;;36.90;22.42;;;;;;;;;;5138092;27;20029;-61
2021/04/19 03:58:27;;;;;;;48.50;28.88;;;;;;;;;;5137726;27;20026;-61
2021/04/19 04:00:53;;;;;;;35.72;22.10;;;;;;;;;;5137397;27;20489;-62
2021/04/19 04:03:36;;;;;;;30.60;18.05;;;;;;;;;;5137432;27;20034;-61
2021/04/19 04:06:23;;;;;;;27.58;17.33;;;;;;;;;;5137523;27;20489;-61
2021/04/19 04:08:50;;;;;;;27.83;17.52;;;;;;;;;;5137450;27;20022;-61
2021/04/19 04:11:17;;;;;;;29.77;17.55;;;;;;;;;;5137009;27;20025;-62
2021/04/19 04:13:45;;;;;;;27.52;17.75;;;;;;;;;;5137439;27;20026;-61
2021/04/19 04:16:12;;;;;;;29.13;17.60;;;;;;;;;;5137452;27;20094;-61
2021/04/19 04:19:13;;;;;;;31.73;18.60;;;;;;;;;;5139720;27;20030;-61
2021/04/19 04:21:47;;;;;;;31.58;18.45;;;;;;;;;;5137196;27;20106;-61
2021/04/19 04:24:27;;;;;;;28.35;18.08;;;;;;;;;;5155868;27;20420;-60
2021/04/19 04:26:53;;;;;;;30.95;19.23;;;;;;;;;;5137122;27;20069;-61
2021/04/19 04:29:18;;;;;;;30.50;19.33;;;;;;;;;;5137029;27;20015;-61
2021/04/19 04:32:03;;;;;;;33.08;19.58;;;;;;;;;;5155474;27;20034;-61
2021/04/19 04:34:29;;;;;;;28.73;18.40;;;;;;;;;;5136933;27;20082;-61
2021/04/19 04:36:55;;;;;;;29.02;18.67;;;;;;;;;;5136957;27;20007;-61
2021/04/19 04:39:21;;;;;;;28.20;17.85;;;;;;;;;;5136812;27;20431;-61
2021/04/19 04:41:47;;;;;;;26.13;17.83;;;;;;;;;;5155267;27;20023;-61
2021/04/19 04:44:17;;;;;;;24.27;16.08;;;;;;;;;;5155140;27;20477;-61
2021/04/19 04:46:46;;;;;;;23.38;16.25;;;;;;;;;;5155186;27;20513;-61
2021/04/19 04:49:11;;;;;;;26.88;16.08;;;;;;;;;;5155178;27;20029;-61
2021/04/19 04:51:37;;;;;;;24.38;14.82;;;;;;;;;;5136599;27;20026;-61
2021/04/19 04:54:07;;;;;;;26.08;16.95;;;;;;;;;;5136541;27;20054;-61
2021/04/19 04:56:34;;;;;;;26.98;19.00;;;;;;;;;;5155044;27;20385;-61
2021/04/19 04:59:01;;;;;;;39.63;27.30;;;;;;;;;;5154979;27;20027;-61
2021/04/19 05:01:28;;;;;;;50.20;34.90;;;;;;;;;;5154669;27;20557;-61
2021/04/19 05:03:55;;;;;;;68.35;44.85;;;;;;;;;;5155130;27;20062;-61
2021/04/19 05:06:20;;;;;;;46.80;31.60;;;;;;;;;;5136539;27;20022;-61
2021/04/19 05:08:47;;;;;;;42.15;28.02;;;;;;;;;;5154588;27;20035;-61
2021/04/19 05:11:14;;;;;;;42.95;26.52;;;;;;;;;;5154770;27;20069;-61
2021/04/19 05:13:40;;;;;;;70.07;38.20;;;;;;;;;;5154788;27;20019;-61
2021/04/19 05:16:05;;;;;;;59.15;35.63;;;;;;;;;;5154657;27;20007;-61
2021/04/19 05:18:31;;;;;;;62.75;40.25;;;;;;;;;;5154773;27;20031;-61
2021/04/19 05:20:56;;;;;;;69.55;47.72;;;;;;;;;;5136206;27;20019;-61
2021/04/19 05:23:22;;;;;;;71.53;49.33;;;;;;;;;;5154604;27;20030;-61
2021/04/19 05:25:48;;;;;;;66.25;44.28;;;;;;;;;;5154636;27;20019;-61
2021/04/19 05:28:14;;;;;;;57.00;37.05;;;;;;;;;;5154553;27;20026;-61
2021/04/19 05:30:40;;;;;;;44.15;30.15;;;;;;;;;;5154515;27;20078;-61
2021/04/19 05:33:06;;;;;;;36.72;26.20;;;;;;;;;;5135978;27;20022;-61
2021/04/19 05:35:33;;;;;;;36.92;25.60;;;;;;;;;;5154446;27;20019;-61
2021/04/19 05:37:59;;;;;;;37.28;26.60;;;;;;;;;;5154368;27;20057;-61
2021/04/19 05:40:26;;;;;;;33.58;20.02;;;;;;;;;;5154393;27;20034;-61
2021/04/19 05:42:52;;;;;;;45.42;31.27;;;;;;;;;;5154365;27;20039;-61
2021/04/19 05:45:18;;;;;;;50.17;33.25;;;;;;;;;;5154331;27;20021;-61
2021/04/19 05:47:50;;;;;;;39.55;25.80;;;;;;;;;;5154236;27;20080;-61
2021/04/19 05:50:16;;;;;;;35.95;23.15;;;;;;;;;;5154232;27;20393;-61
2021/04/19 05:52:42;;;;;;;41.15;23.00;;;;;;;;;;5154247;27;20103;-61
2021/04/19 05:55:08;;;;;;;36.95;23.80;;;;;;;;;;5135793;27;20027;-61
2021/04/19 05:57:43;;;;;;;41.65;25.20;;;;;;;;;;5154182;27;20102;-61
2021/04/19 06:00:12;;;;;;;42.53;26.63;;;;;;;;;;5154203;27;20050;-61
2021/04/19 06:02:52;;;;;;;42.00;26.58;;;;;;;;;;5116142;28;20051;-61
2021/04/19 06:05:29;;;;;;;45.97;30.85;;;;;;;;;;5112818;28;20028;-61
2021/04/19 06:08:04;;;;;;;45.22;28.90;;;;;;;;;;5112683;28;20044;-61
2021/04/19 06:10:46;;;;;;;52.03;32.33;;;;;;;;;;5111747;28;20084;-61
2021/04/19 06:13:30;;;;;;;41.40;27.10;;;;;;;;;;5111889;28;20450;-61
2021/04/19 06:15:58;;;;;;;54.65;33.63;;;;;;;;;;5112801;28;20023;-61
2021/04/19 06:18:24;;;;;;;80.72;50.97;;;;;;;;;;5111526;28;20028;-61
2021/04/19 06:20:54;;;;;;;56.17;34.33;;;;;;;;;;5112754;28;20364;-61
2021/04/19 06:23:20;;;;;;;40.83;26.35;;;;;;;;;;5112824;28;20111;-61
2021/04/19 06:25:45;;;;;;;47.70;27.65;;;;;;;;;;5112747;28;20039;-61
2021/04/19 06:28:11;;;;;;;43.75;24.58;;;;;;;;;;5114509;28;20027;-61
2021/04/19 06:30:41;;;;;;;40.28;23.25;;;;;;;;;;5116480;28;20043;-61
2021/04/19 06:33:14;;;;;;;39.95;23.58;;;;;;;;;;5116371;28;20028;-61
2021/04/19 06:35:39;;;;;;;38.03;22.80;;;;;;;;;;5116511;28;20024;-60
2021/04/19 06:38:05;;;;;;;37.40;22.83;;;;;;;;;;5116318;28;20100;-60
2021/04/19 06:40:34;;;;;;;39.63;24.85;;;;;;;;;;5116152;28;20027;-61
2021/04/19 06:43:00;;;;;;;37.42;24.80;;;;;;;;;;5116156;28;20032;-61
2021/04/19 06:45:26;;;;;;;33.65;21.00;;;;;;;;;;5116380;28;20087;-59
2021/04/19 06:47:53;;;;;;;43.83;25.75;;;;;;;;;;5116260;27;20119;-59
2021/04/19 06:50:19;;;;;;;50.53;30.90;;;;;;;;;;5115501;28;20175;-59
2021/04/19 06:52:47;;;;;;;56.15;35.55;;;;;;;;;;5114914;28;20027;-59
2021/04/19 06:55:18;;;;;;;68.35;33.28;;;;;;;;;;5116044;28;20441;-59
2021/04/19 06:57:59;;;;;;;69.88;31.65;;;;;;;;;;5114890;28;20024;-59
2021/04/19 07:00:26;;;;;;;58.47;31.95;;;;;;;;;;5115948;28;20031;-59
2021/04/19 07:02:53;;;;;;;55.60;34.20;;;;;;;;;;5131851;27;20039;-60
2021/04/19 07:05:23;;;;;;;41.10;25.92;;;;;;;;;;5135260;27;20031;-60
2021/04/19 07:08:12;;;;;;;42.42;25.65;;;;;;;;;;5136557;27;20019;-59
2021/04/19 07:10:38;;;;;;;38.13;25.48;;;;;;;;;;5097145;27;20486;-60
2021/04/19 07:13:08;;;;;;;44.70;27.98;;;;;;;;;;5136217;27;20019;-60
2021/04/19 07:15:35;;;;;;;41.22;26.10;;;;;;;;;;5136185;27;20023;-60
2021/04/19 07:18:02;;;;;;;66.07;34.13;;;;;;;;;;5134964;27;20019;-59
2021/04/19 07:20:28;;;;;;;73.65;38.00;;;;;;;;;;5135093;27;20110;-60
2021/04/19 07:22:54;;;;;;;57.30;34.50;;;;;;;;;;5136175;27;20109;-59
2021/04/19 07:25:19;;;;;;;77.05;45.45;;;;;;;;;;5134545;27;20027;-60
2021/04/19 07:27:46;;;;;;;67.38;41.00;;;;;;;;;;5135992;27;20064;-60
2021/04/19 07:30:12;;;;;;;73.10;46.53;;;;;;;;;;5136294;27;20031;-59
2021/04/19 07:32:39;;;;;;;274.48;172.95;;;;;;;;;;5136185;27;20015;-59
2021/04/19 07:35:05;;;;;;;89.05;57.20;;;;;;;;;;5136198;27;20024;-59
2021/04/19 07:37:31;;;;;;;55.65;32.53;;;;;;;;;;5134846;27;20019;-59
2021/04/19 07:39:57;;;;;;;54.25;31.38;;;;;;;;;;5134556;27;20027;-60
2021/04/19 07:42:23;;;;;;;45.70;28.38;;;;;;;;;;5135940;27;20023;-60
2021/04/19 07:44:49;;;;;;;43.95;28.35;;;;;;;;;;5135932;27;20114;-60
2021/04/19 07:47:21;;;;;;;51.58;30.13;;;;;;;;;;5136031;27;20023;-59
2021/04/19 07:50:06;;;;;;;46.03;27.92;;;;;;;;;;5135512;27;20019;-59
2021/04/19 07:52:35;;;;;;;47.28;29.17;;;;;;;;;;5135201;27;20093;-59
2021/04/19 07:55:05;;;;;;;49.42;29.88;;;;;;;;;;5136122;27;20024;-59
2021/04/19 07:57:30;;;;;;;43.08;27.23;;;;;;;;;;5136104;27;20027;-59
2021/04/19 07:59:56;;;;;;;56.70;29.83;;;;;;;;;;5135870;27;20019;-60
2021/04/19 08:02:22;;;;;;;54.72;33.55;;;;;;;;;;5148515;27;20099;-59
2021/04/19 08:04:52;;;;;;;68.05;40.08;;;;;;;;;;5156739;27;20034;-59
2021/04/19 08:07:20;;;;;;;46.20;29.40;;;;;;;;;;5156082;27;20425;-59
2021/04/19 08:09:55;;;;;;;47.30;29.02;;;;;;;;;;5135741;27;20375;-59
2021/04/19 08:12:35;;;;;;;46.83;29.08;;;;;;;;;;5135741;27;20062;-59
2021/04/19 08:15:02;;;;;;;48.22;29.23;;;;;;;;;;5135766;27;20030;-59
2021/04/19 08:17:32;;;;;;;49.05;30.10;;;;;;;;;;5117194;27;20046;-59
2021/04/19 08:19:58;;;;;;;53.08;31.75;;;;;;;;;;5117075;27;20429;-59
2021/04/19 08:22:28;;;;;;;105.15;57.47;;;;;;;;;;5135613;27;20029;-59
2021/04/19 08:25:12;;;;;;;54.35;33.20;;;;;;;;;;5135400;27;20058;-59
2021/04/19 08:27:38;;;;;;;62.67;34.17;;;;;;;;;;5116969;27;20430;-59
2021/04/19 08:30:05;;;;;;;259.10;115.30;;;;;;;;;;5135469;27;20481;-60
2021/04/19 08:32:33;;;;;;;128.63;60.97;;;;;;;;;;5135440;27;20031;-60
2021/04/19 08:34:59;;;;;;;55.17;32.58;;;;;;;;;;5135287;27;20107;-59
2021/04/19 08:37:27;;;;;;;66.82;35.63;;;;;;;;;;5135280;27;20072;-60
2021/04/19 08:39:52;;;;;;;65.75;35.65;;;;;;;;;;5135104;27;20087;-59
2021/04/19 08:42:18;;;;;;;81.20;44.08;;;;;;;;;;5134886;27;20443;-59
2021/04/19 08:44:44;;;;;;;72.90;39.60;;;;;;;;;;5134906;27;20025;-59
2021/04/19 08:47:13;;;;;;;53.65;31.70;;;;;;;;;;5116550;27;20453;-60
2021/04/19 08:49:39;;;;;;;53.05;30.77;;;;;;;;;;5116398;27;20015;-60
2021/04/19 08:52:05;;;;;;;174.30;66.47;;;;;;;;;;5151240;27;20044;-59
2021/04/19 08:54:32;;;;;;;69.60;38.20;;;;;;;;;;5155405;27;20078;-59
2021/04/19 08:56:59;;;;;;;719.70;280.23;;;;;;;;;;5154824;27;20537;-59
2021/04/19 08:59:28;;;;;;;95.80;50.15;;;;;;;;;;5154747;27;20010;-59
2021/04/19 09:01:54;;;;;;;79.68;37.67;;;;;;;;;;5154687;27;20078;-59
2021/04/19 09:04:22;;;;;;;1510.63;522.80;;;;;;;;;;5155552;27;20061;-59
2021/04/19 09:06:51;;;;;;;1152.72;405.45;;;;;;;;;;5155626;27;20030;-59
2021/04/19 09:09:31;;;;;;;1234.57;473.48;;;;;;;;;;5155451;27;20065;-59
2021/04/19 09:12:24;;;;;;;1720.60;620.17;;;;;;;;;;5155421;27;20122;-59
2021/04/19 09:14:50;;;;;;;683.17;237.75;;;;;;;;;;5132308;27;20041;-59
2021/04/19 09:17:26;;;;;;;1466.57;535.25;;;;;;;;;;5155276;27;20097;-59
2021/04/19 09:19:56;;;;;;;397.70;132.65;;;;;;;;;;5155273;27;20023;-59
2021/04/19 09:22:21;;;;;;;82.68;38.05;;;;;;;;;;5155131;27;20014;-59
2021/04/19 09:24:59;;;;;;;899.10;301.00;;;;;;;;;;5155212;27;20027;-59
2021/04/19 09:27:43;;;;;;;380.95;113.68;;;;;;;;;;5155261;27;20022;-59
2021/04/19 09:30:27;;;;;;;877.95;308.42;;;;;;;;;;5154840;27;20027;-59
2021/04/19 09:33:02;;;;;;;129.82;55.28;;;;;;;;;;5154632;27;20030;-59
2021/04/19 09:35:40;;;;;;;57.22;30.77;;;;;;;;;;5133669;27;20023;-61
2021/04/19 09:38:15;;;;;;;79.20;37.40;;;;;;;;;;5132825;27;20027;-61
2021/04/19 09:40:49;;;;;;;56.45;32.42;;;;;;;;;;5133792;28;20424;-61
2021/04/19 09:43:30;;;;;;;316.60;98.53;;;;;;;;;;5133627;28;20471;-61
2021/04/19 09:45:56;;;;;;;63.25;36.10;;;;;;;;;;5133500;28;20033;-61
2021/04/19 09:48:25;;;;;;;54.47;31.88;;;;;;;;;;5115336;28;20064;-61
2021/04/19 09:50:51;;;;;;;61.72;34.50;;;;;;;;;;5133386;28;20038;-61
2021/04/19 09:53:17;;;;;;;60.47;32.80;;;;;;;;;;5133557;28;20019;-61
2021/04/19 09:55:43;;;;;;;61.67;33.40;;;;;;;;;;5133549;28;20028;-61
2021/04/19 09:58:08;;;;;;;85.25;39.40;;;;;;;;;;5133388;28;20106;-61
2021/04/19 10:00:34;;;;;;;53.10;30.67;;;;;;;;;;5133443;28;20122;-61
2021/04/19 10:03:00;;;;;;;47.97;29.35;;;;;;;;;;5134740;27;20051;-61
2021/04/19 10:05:29;;;;;;;45.88;28.08;;;;;;;;;;5137656;27;20119;-61
2021/04/19 10:07:57;;;;;;;54.25;29.33;;;;;;;;;;5137652;27;20553;-61
2021/04/19 10:10:23;;;;;;;64.70;33.17;;;;;;;;;;5118978;27;20439;-61
2021/04/19 10:12:50;;;;;;;220.23;93.03;;;;;;;;;;5137497;27;20019;-61
2021/04/19 10:15:20;;;;;;;70.03;40.47;;;;;;;;;;5137440;27;20410;-61
2021/04/19 10:17:46;;;;;;;51.63;32.10;;;;;;;;;;5137324;27;20054;-61
2021/04/19 10:20:15;;;;;;;39.15;26.80;;;;;;;;;;5137439;27;20065;-61
2021/04/19 10:22:41;;;;;;;52.03;32.92;;;;;;;;;;5137354;27;20023;-61
2021/04/19 10:25:06;;;;;;;46.20;30.23;;;;;;;;;;5137215;27;20015;-61
2021/04/19 10:27:32;;;;;;;79.97;47.08;;;;;;;;;;5137109;27;20027;-61
2021/04/19 10:30:14;;;;;;;36.05;24.63;;;;;;;;;;5136945;27;20466;-59
2021/04/19 10:32:40;;;;;;;78.20;44.33;;;;;;;;;;5137153;27;20028;-59
2021/04/19 10:35:29;;;;;;;390.50;237.40;;;;;;;;;;5136946;27;20015;-59
2021/04/19 10:37:55;;;;;;;38.05;26.13;;;;;;;;;;5126753;27;20044;-59
2021/04/19 10:40:21;;;;;;;31.30;23.27;;;;;;;;;;5136960;27;20359;-59
2021/04/19 10:42:46;;;;;;;36.72;23.75;;;;;;;;;;5118482;27;20054;-59
2021/04/19 10:45:12;;;;;;;32.65;24.55;;;;;;;;;;5136830;27;20031;-59
2021/04/19 10:47:37;;;;;;;32.17;25.13;;;;;;;;;;5136808;27;20023;-59
2021/04/19 10:50:03;;;;;;;35.22;25.92;;;;;;;;;;5136455;27;20019;-59
2021/04/19 10:52:29;;;;;;;53.28;40.22;;;;;;;;;;5136884;27;20031;-58
2021/04/19 10:54:55;;;;;;;131.18;81.97;;;;;;;;;;5137068;27;20385;-57
2021/04/19 10:57:22;;;;;;;79.82;71.35;;;;;;;;;;5136953;27;20027;-57
2021/04/19 10:59:48;;;;;;;29.15;20.92;;;;;;;;;;5137125;27;20082;-57
2021/04/19 11:02:14;;;;;;;41.83;28.85;;;;;;;;;;5136800;27;20418;-57
2021/04/19 11:04:39;;;;;;;35.75;24.70;;;;;;;;;;5136910;27;20028;-57
2021/04/19 11:07:23;;;;;;;39.03;25.02;;;;;;;;;;5137013;27;20023;-57
2021/04/19 11:10:08;;;;;;;36.50;24.25;;;;;;;;;;5136806;27;20035;-58
2021/04/19 11:12:34;;;;;;;32.20;20.40;;;;;;;;;;5136612;27;20031;-58
2021/04/19 11:15:12;;;;;;;41.25;25.80;;;;;;;;;;5136420;27;20474;-60
2021/04/19 11:17:38;;;;;;;37.00;24.90;;;;;;;;;;5136706;27;20040;-61
2021/04/19 11:20:22;;;;;;;27.42;17.15;;;;;;;;;;5136829;27;20089;-61
2021/04/19 11:22:48;;;;;;;28.00;17.70;;;;;;;;;;5136587;27;20023;-58
2021/04/19 11:25:14;;;;;;;34.90;18.95;;;;;;;;;;5136729;27;20011;-57
2021/04/19 11:27:39;;;;;;;32.13;19.52;;;;;;;;;;5136627;27;20027;-57
2021/04/19 11:30:28;;;;;;;36.55;22.70;;;;;;;;;;5136276;27;20088;-58
2021/04/19 11:33:01;;;;;;;27.50;18.52;;;;;;;;;;5125674;27;20054;-57
2021/04/19 11:35:32;;;;;;;40.42;23.05;;;;;;;;;;5136513;27;20055;-57
2021/04/19 11:37:59;;;;;;;54.85;28.25;;;;;;;;;;5136466;27;20033;-57
2021/04/19 11:40:29;;;;;;;35.70;23.08;;;;;;;;;;5136279;27;20050;-56
2021/04/19 11:42:54;;;;;;;39.63;25.00;;;;;;;;;;5136322;27;20035;-57
2021/04/19 11:45:26;;;;;;;32.80;23.85;;;;;;;;;;5136281;27;20019;-57
2021/04/19 11:47:52;;;;;;;25.15;18.73;;;;;;;;;;5136093;27;20462;-57
2021/04/19 11:50:18;;;;;;;45.53;26.83;;;;;;;;;;5150035;27;20067;-57
2021/04/19 11:52:48;;;;;;;23.88;17.85;;;;;;;;;;5156379;27;20027;-57
2021/04/19 11:55:14;;;;;;;27.30;19.15;;;;;;;;;;5155713;27;20133;-57
2021/04/19 11:57:44;;;;;;;24.50;17.98;;;;;;;;;;5156711;27;20019;-57
2021/04/19 12:00:10;;;;;;;52.85;31.83;;;;;;;;;;5156671;27;20480;-60
2021/04/19 12:02:36;;;;;;;24.50;18.38;;;;;;;;;;5156005;27;20046;-60
2021/04/19 12:05:03;;;;;;;27.20;18.65;;;;;;;;;;5156493;27;20044;-60
2021/04/19 12:07:29;;;;;;;25.80;17.98;;;;;;;;;;5156446;27;20101;-60
2021/04/19 12:09:54;;;;;;;33.47;24.95;;;;;;;;;;5156335;27;20114;-60
2021/04/19 12:12:20;;;;;;;31.85;22.70;;;;;;;;;;5156367;27;20018;-60
2021/04/19 12:14:45;;;;;;;27.45;19.17;;;;;;;;;;5156363;27;20051;-60
2021/04/19 12:17:11;;;;;;;23.75;16.38;;;;;;;;;;5156214;27;20388;-60
2021/04/19 12:19:37;;;;;;;53.95;26.70;;;;;;;;;;5156224;27;20023;-60
2021/04/19 12:22:03;;;;;;;28.40;18.95;;;;;;;;;;5156094;27;20061;-60
2021/04/19 12:24:29;;;;;;;17.58;13.75;;;;;;;;;;5137088;27;20054;-61
2021/04/19 12:26:54;;;;;;;17.08;13.18;;;;;;;;;;5155535;27;20382;-61
2021/04/19 12:29:20;;;;;;;16.10;12.57;;;;;;;;;;5156054;27;20027;-60
2021/04/19 12:31:45;;;;;;;12.90;9.90;;;;;;;;;;5155825;27;20021;-60
2021/04/19 12:34:11;;;;;;;15.13;12.52;;;;;;;;;;5155874;27;20067;-60
2021/04/19 12:36:36;;;;;;;13.27;11.27;;;;;;;;;;5155772;27;20022;-60
2021/04/19 12:39:03;;;;;;;17.52;13.48;;;;;;;;;;5155934;27;20034;-60
2021/04/19 12:41:32;;;;;;;110.85;62.60;;;;;;;;;;5137799;27;20382;-60
2021/04/19 12:43:57;;;;;;;24.13;17.25;;;;;;;;;;5155221;27;20025;-60
2021/04/19 12:46:26;;;;;;;26.92;22.45;;;;;;;;;;5136737;27;20033;-60
2021/04/19 12:48:52;;;;;;;21.48;19.02;;;;;;;;;;5153732;27;20046;-60
2021/04/19 12:51:18;;;;;;;23.75;17.20;;;;;;;;;;5153855;27;20122;-60
2021/04/19 12:53:43;;;;;;;16.70;13.32;;;;;;;;;;5154490;27;20064;-60
2021/04/19 12:56:09;;;;;;;155.95;97.80;;;;;;;;;;5154414;27;20158;-60
2021/04/19 12:58:39;;;;;;;74.57;50.83;;;;;;;;;;5154551;27;20038;-60
2021/04/19 13:01:05;;;;;;;15.18;11.48;;;;;;;;;;5154540;27;20026;-61
2021/04/19 13:03:31;;;;;;;13.48;9.95;;;;;;;;;;5136389;27;20030;-60
2021/04/19 13:05:56;;;;;;;11.13;9.85;;;;;;;;;;5136455;27;20026;-60
2021/04/19 13:08:22;;;;;;;8.70;7.80;;;;;;;;;;5154924;27;20026;-60
2021/04/19 13:10:47;;;;;;;10.02;9.05;;;;;;;;;;5154699;27;20018;-60
2021/04/19 13:13:13;;;;;;;13.18;9.35;;;;;;;;;;5154782;27;20274;-60
2021/04/19 13:15:38;;;;;;;11.23;10.18;;;;;;;;;;5154753;27;20015;-60
2021/04/19 13:18:04;;;;;;;10.57;9.68;;;;;;;;;;5154684;27;20019;-60
2021/04/19 13:20:31;;;;;;;11.90;10.70;;;;;;;;;;5154635;27;20052;-60
2021/04/19 13:22:56;;;;;;;6.50;5.53;;;;;;;;;;5154530;27;20034;-60
2021/04/19 13:25:23;;;;;;;9.65;7.75;;;;;;;;;;5154512;27;20389;-60
2021/04/19 13:27:50;;;;;;;8.52;7.50;;;;;;;;;;5154544;27;20026;-60
2021/04/19 13:30:16;;;;;;;16.75;12.57;;;;;;;;;;5154652;27;20011;-60
2021/04/19 13:32:41;;;;;;;8.50;6.93;;;;;;;;;;5154662;27;20083;-60
2021/04/19 13:35:08;;;;;;;9.13;8.20;;;;;;;;;;5154413;27;20398;-60
2021/04/19 13:37:34;;;;;;;13.18;11.75;;;;;;;;;;5154558;27;20018;-60
2021/04/19 13:39:59;;;;;;;8.23;7.43;;;;;;;;;;5154469;27;20416;-60
2021/04/19 13:42:25;;;;;;;16.80;14.90;;;;;;;;;;5154503;27;20031;-60
2021/04/19 13:44:50;;;;;;;21.33;17.83;;;;;;;;;;5154435;27;20023;-60
2021/04/19 13:47:16;;;;;;;12.15;10.02;;;;;;;;;;5154341;27;20512;-60
2021/04/19 13:49:41;;;;;;;16.50;14.80;;;;;;;;;;5154374;27;20018;-60
2021/04/19 13:52:07;;;;;;;9.18;8.27;;;;;;;;;;5154100;27;20485;-60
2021/04/19 13:54:32;;;;;;;7.68;6.95;;;;;;;;;;5154535;27;20102;-60
2021/04/19 13:56:58;;;;;;;7.15;6.50;;;;;;;;;;5136040;27;20110;-60
2021/04/19 13:59:23;;;;;;;12.15;8.50;;;;;;;;;;5154661;27;20347;-60
2021/04/19 14:01:49;;;;;;;6.53;5.97;;;;;;;;;;5154263;27;20040;-60
2021/04/19 14:04:17;;;;;;;7.95;7.25;;;;;;;;;;5154561;27;20382;-60
2021/04/19 14:06:42;;;;;;;5.95;5.45;;;;;;;;;;5154546;27;20022;-60
2021/04/19 14:09:08;;;;;;;35.95;23.40;;;;;;;;;;5154511;27;20031;-60
2021/04/19 14:11:33;;;;;;;23.70;12.00;;;;;;;;;;5154747;27;20023;-60
2021/04/19 14:13:58;;;;;;;14.40;11.02;;;;;;;;;;5154393;27;20419;-60
2021/04/19 14:16:24;;;;;;;6.72;6.13;;;;;;;;;;5154480;27;20028;-60
2021/04/19 14:18:52;;;;;;;89.65;65.18;;;;;;;;;;5154111;27;20071;-61
2021/04/19 14:21:18;;;;;;;80.63;63.75;;;;;;;;;;5135624;27;20018;-60
2021/04/19 14:23:43;;;;;;;56.35;43.53;;;;;;;;;;5154056;27;20397;-60
2021/04/19 14:26:08;;;;;;;24.70;18.13;;;;;;;;;;5153957;27;20018;-60
2021/04/19 14:28:34;;;;;;;24.85;19.73;;;;;;;;;;5153920;27;20430;-60